sensor_id;sensor_type;location;lat;lon;timestamp;temperature;humidity
25328;DHT22;13279;51.300;12.394;2022-08-21T00:00:30;18.30;99.90
25328;DHT22;13279;51.300;12.394;2022-08-21T00:03:08;18.30;99.90
25328;DHT22;13279;51.300;12.394;2022-08-21T00:05:38;18.30;99.90
25328;DHT22;13279;51.300;12.394;2022-08-21T00:08:06;18.30;99.90
25328;DHT22;13279;51.300;12.394;2022-08-21T00:10:34;18.30;99.90
25328;DHT22;13279;51.300;12.394;2022-08-21T00:13:02;18.20;99.90
25328;DHT22;13279;51.300;12.394;2022-08-21T00:15:34;18.20;99.90
25328;DHT22;13279;51.300;12.394;2022-08-21T00:18:03;18.20;99.90
25328;DHT22;13279;51.300;12.394;2022-08-21T00:20:31;18.20;99.90
25328;DHT22;13279;51.300;12.394;2022-08-21T00:22:59;18.20;99.90
25328;DHT22;13279;51.300;12.394;2022-08-21T00:25:27;18.10;99.90
25328;DHT22;13279;51.300;12.394;2022-08-21T00:27:55;18.10;99.90
25328;DHT22;13279;51.300;12.394;2022-08-21T00:30:24;18.20;99.90
25328;DHT22;13279;51.300;12.394;2022-08-21T00:32:55;18.20;99.90
25328;DHT22;13279;51.300;12.394;2022-08-21T00:35:24;18.20;99.90
25328;DHT22;13279;51.300;12.394;2022-08-21T00:37:52;18.20;99.90
25328;DHT22;13279;51.300;12.394;2022-08-21T00:40:23;18.20;99.90
25328;DHT22;13279;51.300;12.394;2022-08-21T00:42:51;18.20;99.90
25328;DHT22;13279;51.300;12.394;2022-08-21T00:45:20;18.20;99.90
25328;DHT22;13279;51.300;12.394;2022-08-21T00:47:47;18.20;99.90
25328;DHT22;13279;51.300;12.394;2022-08-21T00:50:16;18.20;99.90
25328;DHT22;13279;51.300;12.394;2022-08-21T00:52:45;18.20;99.90
25328;DHT22;13279;51.300;12.394;2022-08-21T00:55:13;18.20;99.90
25328;DHT22;13279;51.300;12.394;2022-08-21T00:57:45;18.10;99.90
25328;DHT22;13279;51.300;12.394;2022-08-21T01:00:23;18.10;99.90
25328;DHT22;13279;51.300;12.394;2022-08-21T01:02:51;18.10;99.90
25328;DHT22;13279;51.300;12.394;2022-08-21T01:05:20;18.10;99.90
25328;DHT22;13279;51.300;12.394;2022-08-21T01:07:47;18.00;99.90
25328;DHT22;13279;51.300;12.394;2022-08-21T01:10:17;18.00;99.90
25328;DHT22;13279;51.300;12.394;2022-08-21T01:12:44;18.00;99.90
25328;DHT22;13279;51.300;12.394;2022-08-21T01:15:14;18.00;99.90
25328;DHT22;13279;51.300;12.394;2022-08-21T01:17:42;18.00;99.90
25328;DHT22;13279;51.300;12.394;2022-08-21T01:20:11;18.00;99.90
25328;DHT22;13279;51.300;12.394;2022-08-21T01:22:40;18.00;99.90
25328;DHT22;13279;51.300;12.394;2022-08-21T01:25:09;18.00;99.90
25328;DHT22;13279;51.300;12.394;2022-08-21T01:27:37;18.00;99.90
25328;DHT22;13279;51.300;12.394;2022-08-21T01:30:11;18.00;99.90
25328;DHT22;13279;51.300;12.394;2022-08-21T01:32:39;18.00;99.90
25328;DHT22;13279;51.300;12.394;2022-08-21T01:35:08;18.00;99.90
25328;DHT22;13279;51.300;12.394;2022-08-21T01:37:37;18.00;99.90
25328;DHT22;13279;51.300;12.394;2022-08-21T01:40:08;18.00;99.90
25328;DHT22;13279;51.300;12.394;2022-08-21T01:42:37;18.00;99.90
25328;DHT22;13279;51.300;12.394;2022-08-21T01:45:05;18.00;99.90
25328;DHT22;13279;51.300;12.394;2022-08-21T01:47:33;18.00;99.90
25328;DHT22;13279;51.300;12.394;2022-08-21T01:50:03;18.00;99.90
25328;DHT22;13279;51.300;12.394;2022-08-21T01:52:32;18.00;99.90
25328;DHT22;13279;51.300;12.394;2022-08-21T01:54:59;18.00;99.90
25328;DHT22;13279;51.300;12.394;2022-08-21T01:57:28;18.00;99.90
25328;DHT22;13279;51.300;12.394;2022-08-21T01:59:56;18.00;99.90
25328;DHT22;13279;51.300;12.394;2022-08-21T02:02:23;18.10;99.90
25328;DHT22;13279;51.300;12.394;2022-08-21T02:04:51;18.10;99.90
25328;DHT22;13279;51.300;12.394;2022-08-21T02:07:18;18.00;99.90
25328;DHT22;13279;51.300;12.394;2022-08-21T02:09:46;18.00;99.90
25328;DHT22;13279;51.300;12.394;2022-08-21T02:12:13;18.00;99.90
25328;DHT22;13279;51.300;12.394;2022-08-21T02:14:42;18.00;99.90
25328;DHT22;13279;51.300;12.394;2022-08-21T02:17:10;18.00;99.90
25328;DHT22;13279;51.300;12.394;2022-08-21T02:19:38;17.90;99.90
25328;DHT22;13279;51.300;12.394;2022-08-21T02:22:05;17.90;99.90
25328;DHT22;13279;51.300;12.394;2022-08-21T02:24:33;17.90;99.90
25328;DHT22;13279;51.300;12.394;2022-08-21T02:27:00;17.90;99.90
25328;DHT22;13279;51.300;12.394;2022-08-21T02:29:28;17.90;99.90
25328;DHT22;13279;51.300;12.394;2022-08-21T02:31:56;17.80;99.90
25328;DHT22;13279;51.300;12.394;2022-08-21T02:34:24;17.90;99.90
25328;DHT22;13279;51.300;12.394;2022-08-21T02:36:51;17.90;99.90
25328;DHT22;13279;51.300;12.394;2022-08-21T02:39:19;17.90;99.90
25328;DHT22;13279;51.300;12.394;2022-08-21T02:41:47;17.90;99.90
25328;DHT22;13279;51.300;12.394;2022-08-21T02:44:14;17.90;99.90
25328;DHT22;13279;51.300;12.394;2022-08-21T02:46:42;17.80;99.90
25328;DHT22;13279;51.300;12.394;2022-08-21T02:49:10;17.90;99.90
25328;DHT22;13279;51.300;12.394;2022-08-21T02:51:38;17.80;99.90
25328;DHT22;13279;51.300;12.394;2022-08-21T02:54:05;17.80;99.90
25328;DHT22;13279;51.300;12.394;2022-08-21T02:56:33;17.80;99.90
25328;DHT22;13279;51.300;12.394;2022-08-21T02:59:00;17.80;99.90
25328;DHT22;13279;51.300;12.394;2022-08-21T03:01:28;17.80;99.90
25328;DHT22;13279;51.300;12.394;2022-08-21T03:03:55;17.70;99.90
25328;DHT22;13279;51.300;12.394;2022-08-21T03:06:24;17.70;99.90
25328;DHT22;13279;51.300;12.394;2022-08-21T03:08:52;17.70;99.90
25328;DHT22;13279;51.300;12.394;2022-08-21T03:11:19;17.70;99.90
25328;DHT22;13279;51.300;12.394;2022-08-21T03:13:47;17.70;99.90
25328;DHT22;13279;51.300;12.394;2022-08-21T03:16:14;17.60;99.90
25328;DHT22;13279;51.300;12.394;2022-08-21T03:18:42;17.60;99.90
25328;DHT22;13279;51.300;12.394;2022-08-21T03:21:10;17.60;99.90
25328;DHT22;13279;51.300;12.394;2022-08-21T03:23:40;17.60;99.90
25328;DHT22;13279;51.300;12.394;2022-08-21T03:26:09;17.60;99.90
25328;DHT22;13279;51.300;12.394;2022-08-21T03:28:37;17.50;99.90
25328;DHT22;13279;51.300;12.394;2022-08-21T03:31:04;17.50;99.90
25328;DHT22;13279;51.300;12.394;2022-08-21T03:33:32;17.50;99.90
25328;DHT22;13279;51.300;12.394;2022-08-21T03:36:02;17.50;99.90
25328;DHT22;13279;51.300;12.394;2022-08-21T03:38:32;17.50;99.90
25328;DHT22;13279;51.300;12.394;2022-08-21T03:41:06;17.50;99.90
25328;DHT22;13279;51.300;12.394;2022-08-21T03:43:33;17.50;99.90
25328;DHT22;13279;51.300;12.394;2022-08-21T03:46:02;17.50;99.90
25328;DHT22;13279;51.300;12.394;2022-08-21T03:48:31;17.50;99.90
25328;DHT22;13279;51.300;12.394;2022-08-21T03:50:59;17.40;99.90
25328;DHT22;13279;51.300;12.394;2022-08-21T03:53:26;17.40;99.90
25328;DHT22;13279;51.300;12.394;2022-08-21T03:55:54;17.40;99.90
25328;DHT22;13279;51.300;12.394;2022-08-21T03:58:25;17.40;99.90
25328;DHT22;13279;51.300;12.394;2022-08-21T04:00:55;17.40;99.90
25328;DHT22;13279;51.300;12.394;2022-08-21T04:03:23;17.40;99.90
25328;DHT22;13279;51.300;12.394;2022-08-21T04:05:51;17.40;99.90
25328;DHT22;13279;51.300;12.394;2022-08-21T04:08:18;17.40;99.90
25328;DHT22;13279;51.300;12.394;2022-08-21T04:10:48;17.40;99.90
25328;DHT22;13279;51.300;12.394;2022-08-21T04:13:16;17.40;99.90
25328;DHT22;13279;51.300;12.394;2022-08-21T04:15:46;17.30;99.90
25328;DHT22;13279;51.300;12.394;2022-08-21T04:18:13;17.30;99.90
25328;DHT22;13279;51.300;12.394;2022-08-21T04:20:42;17.30;99.90
25328;DHT22;13279;51.300;12.394;2022-08-21T04:23:10;17.30;99.90
25328;DHT22;13279;51.300;12.394;2022-08-21T04:25:37;17.30;99.90
25328;DHT22;13279;51.300;12.394;2022-08-21T04:28:05;17.30;99.90
25328;DHT22;13279;51.300;12.394;2022-08-21T04:30:33;17.30;99.90
25328;DHT22;13279;51.300;12.394;2022-08-21T04:33:02;17.30;99.90
25328;DHT22;13279;51.300;12.394;2022-08-21T04:35:30;17.30;99.90
25328;DHT22;13279;51.300;12.394;2022-08-21T04:37:57;17.30;99.90
25328;DHT22;13279;51.300;12.394;2022-08-21T04:40:26;17.30;99.90
25328;DHT22;13279;51.300;12.394;2022-08-21T04:42:56;17.30;99.90
25328;DHT22;13279;51.300;12.394;2022-08-21T04:45:27;17.30;99.90
25328;DHT22;13279;51.300;12.394;2022-08-21T04:47:57;17.30;99.90
25328;DHT22;13279;51.300;12.394;2022-08-21T04:50:30;17.30;99.90
25328;DHT22;13279;51.300;12.394;2022-08-21T04:53:06;17.30;99.90
25328;DHT22;13279;51.300;12.394;2022-08-21T04:55:34;17.30;99.90
25328;DHT22;13279;51.300;12.394;2022-08-21T04:58:04;17.30;99.90
25328;DHT22;13279;51.300;12.394;2022-08-21T05:00:32;17.30;99.90
25328;DHT22;13279;51.300;12.394;2022-08-21T05:03:00;17.30;99.90
25328;DHT22;13279;51.300;12.394;2022-08-21T05:05:30;17.40;99.90
25328;DHT22;13279;51.300;12.394;2022-08-21T05:07:59;17.30;99.90
25328;DHT22;13279;51.300;12.394;2022-08-21T05:10:27;17.40;99.90
25328;DHT22;13279;51.300;12.394;2022-08-21T05:12:55;17.40;99.90
25328;DHT22;13279;51.300;12.394;2022-08-21T05:15:23;17.40;99.90
25328;DHT22;13279;51.300;12.394;2022-08-21T05:17:51;17.30;99.90
25328;DHT22;13279;51.300;12.394;2022-08-21T05:20:19;17.30;99.90
25328;DHT22;13279;51.300;12.394;2022-08-21T05:22:48;17.30;99.90
25328;DHT22;13279;51.300;12.394;2022-08-21T05:25:16;17.20;99.90
25328;DHT22;13279;51.300;12.394;2022-08-21T05:27:43;17.20;99.90
25328;DHT22;13279;51.300;12.394;2022-08-21T05:30:11;17.20;99.90
25328;DHT22;13279;51.300;12.394;2022-08-21T05:32:39;17.20;99.90
25328;DHT22;13279;51.300;12.394;2022-08-21T05:35:08;17.20;99.90
25328;DHT22;13279;51.300;12.394;2022-08-21T05:37:35;17.20;99.90
25328;DHT22;13279;51.300;12.394;2022-08-21T05:40:05;17.20;99.90
25328;DHT22;13279;51.300;12.394;2022-08-21T05:42:34;17.30;99.90
25328;DHT22;13279;51.300;12.394;2022-08-21T05:45:01;17.30;99.90
25328;DHT22;13279;51.300;12.394;2022-08-21T05:47:29;17.40;99.90
25328;DHT22;13279;51.300;12.394;2022-08-21T05:49:56;17.40;99.90
25328;DHT22;13279;51.300;12.394;2022-08-21T05:52:23;17.50;99.90
25328;DHT22;13279;51.300;12.394;2022-08-21T05:54:51;17.50;99.90
25328;DHT22;13279;51.300;12.394;2022-08-21T05:57:22;17.50;99.90
25328;DHT22;13279;51.300;12.394;2022-08-21T05:59:51;17.60;99.90
25328;DHT22;13279;51.300;12.394;2022-08-21T06:02:19;17.60;99.90
25328;DHT22;13279;51.300;12.394;2022-08-21T06:04:48;17.60;99.90
25328;DHT22;13279;51.300;12.394;2022-08-21T06:07:15;17.70;99.90
25328;DHT22;13279;51.300;12.394;2022-08-21T06:09:43;17.80;99.90
25328;DHT22;13279;51.300;12.394;2022-08-21T06:12:12;17.90;99.90
25328;DHT22;13279;51.300;12.394;2022-08-21T06:14:41;18.00;99.90
25328;DHT22;13279;51.300;12.394;2022-08-21T06:17:11;18.00;99.90
25328;DHT22;13279;51.300;12.394;2022-08-21T06:19:39;18.00;99.90
25328;DHT22;13279;51.300;12.394;2022-08-21T06:22:07;18.00;99.90
25328;DHT22;13279;51.300;12.394;2022-08-21T06:24:35;18.00;99.90
25328;DHT22;13279;51.300;12.394;2022-08-21T06:27:04;18.00;99.90
25328;DHT22;13279;51.300;12.394;2022-08-21T06:29:34;18.00;99.90
25328;DHT22;13279;51.300;12.394;2022-08-21T06:32:03;18.00;99.90
25328;DHT22;13279;51.300;12.394;2022-08-21T06:34:35;18.00;99.90
25328;DHT22;13279;51.300;12.394;2022-08-21T06:37:04;18.00;99.90
25328;DHT22;13279;51.300;12.394;2022-08-21T06:39:32;18.00;99.90
25328;DHT22;13279;51.300;12.394;2022-08-21T06:41:59;18.00;99.90
25328;DHT22;13279;51.300;12.394;2022-08-21T06:44:28;18.10;99.90
25328;DHT22;13279;51.300;12.394;2022-08-21T06:46:56;18.10;99.90
25328;DHT22;13279;51.300;12.394;2022-08-21T06:49:25;18.20;99.90
25328;DHT22;13279;51.300;12.394;2022-08-21T06:51:53;18.20;99.90
25328;DHT22;13279;51.300;12.394;2022-08-21T06:54:20;18.30;99.90
25328;DHT22;13279;51.300;12.394;2022-08-21T06:56:47;18.20;99.90
25328;DHT22;13279;51.300;12.394;2022-08-21T06:59:15;18.30;99.90
25328;DHT22;13279;51.300;12.394;2022-08-21T07:01:43;18.40;99.90
25328;DHT22;13279;51.300;12.394;2022-08-21T07:04:10;18.40;99.90
25328;DHT22;13279;51.300;12.394;2022-08-21T07:06:39;18.40;99.90
25328;DHT22;13279;51.300;12.394;2022-08-21T07:09:06;18.40;99.90
25328;DHT22;13279;51.300;12.394;2022-08-21T07:11:36;18.40;99.90
25328;DHT22;13279;51.300;12.394;2022-08-21T07:14:04;18.40;99.90
25328;DHT22;13279;51.300;12.394;2022-08-21T07:16:32;18.50;99.90
25328;DHT22;13279;51.300;12.394;2022-08-21T07:18:59;18.60;99.90
25328;DHT22;13279;51.300;12.394;2022-08-21T07:21:27;18.80;99.90
25328;DHT22;13279;51.300;12.394;2022-08-21T07:23:55;19.00;99.90
25328;DHT22;13279;51.300;12.394;2022-08-21T07:26:24;18.90;99.90
25328;DHT22;13279;51.300;12.394;2022-08-21T07:28:53;19.00;99.90
25328;DHT22;13279;51.300;12.394;2022-08-21T07:31:22;19.00;99.90
25328;DHT22;13279;51.300;12.394;2022-08-21T07:33:50;19.10;99.90
25328;DHT22;13279;51.300;12.394;2022-08-21T07:36:17;19.20;99.90
25328;DHT22;13279;51.300;12.394;2022-08-21T07:38:45;19.30;99.90
25328;DHT22;13279;51.300;12.394;2022-08-21T07:41:17;19.30;99.90
25328;DHT22;13279;51.300;12.394;2022-08-21T07:43:46;19.30;99.90
25328;DHT22;13279;51.300;12.394;2022-08-21T07:46:13;19.30;99.90
25328;DHT22;13279;51.300;12.394;2022-08-21T07:48:41;19.40;99.90
25328;DHT22;13279;51.300;12.394;2022-08-21T07:51:10;19.30;99.90
25328;DHT22;13279;51.300;12.394;2022-08-21T07:53:39;19.30;99.90
25328;DHT22;13279;51.300;12.394;2022-08-21T07:56:08;19.30;99.90
25328;DHT22;13279;51.300;12.394;2022-08-21T07:58:38;19.30;99.90
25328;DHT22;13279;51.300;12.394;2022-08-21T08:01:05;19.40;99.90
25328;DHT22;13279;51.300;12.394;2022-08-21T08:03:33;19.40;99.90
25328;DHT22;13279;51.300;12.394;2022-08-21T08:06:01;19.40;99.90
25328;DHT22;13279;51.300;12.394;2022-08-21T08:08:30;19.50;99.90
25328;DHT22;13279;51.300;12.394;2022-08-21T08:10:59;19.50;99.90
25328;DHT22;13279;51.300;12.394;2022-08-21T08:13:27;19.50;99.90
25328;DHT22;13279;51.300;12.394;2022-08-21T08:15:56;19.50;99.90
25328;DHT22;13279;51.300;12.394;2022-08-21T08:18:24;19.60;99.90
25328;DHT22;13279;51.300;12.394;2022-08-21T08:20:51;19.80;99.90
25328;DHT22;13279;51.300;12.394;2022-08-21T08:23:19;19.90;99.90
25328;DHT22;13279;51.300;12.394;2022-08-21T08:25:46;19.90;99.90
25328;DHT22;13279;51.300;12.394;2022-08-21T08:28:14;20.00;99.90
25328;DHT22;13279;51.300;12.394;2022-08-21T08:30:41;20.10;99.90
25328;DHT22;13279;51.300;12.394;2022-08-21T08:33:10;20.20;99.90
25328;DHT22;13279;51.300;12.394;2022-08-21T08:35:38;20.20;99.90
25328;DHT22;13279;51.300;12.394;2022-08-21T08:38:06;20.20;99.90
25328;DHT22;13279;51.300;12.394;2022-08-21T08:40:39;20.20;99.90
25328;DHT22;13279;51.300;12.394;2022-08-21T08:43:10;20.20;99.90
25328;DHT22;13279;51.300;12.394;2022-08-21T08:45:39;20.20;99.90
25328;DHT22;13279;51.300;12.394;2022-08-21T08:48:12;20.30;99.90
25328;DHT22;13279;51.300;12.394;2022-08-21T08:50:45;20.50;99.90
25328;DHT22;13279;51.300;12.394;2022-08-21T08:53:18;20.50;99.90
25328;DHT22;13279;51.300;12.394;2022-08-21T08:55:48;20.60;99.90
25328;DHT22;13279;51.300;12.394;2022-08-21T08:58:22;20.60;99.90
25328;DHT22;13279;51.300;12.394;2022-08-21T09:00:52;20.60;99.90
25328;DHT22;13279;51.300;12.394;2022-08-21T09:03:23;20.70;99.90
25328;DHT22;13279;51.300;12.394;2022-08-21T09:05:57;20.70;75.10
25328;DHT22;13279;51.300;12.394;2022-08-21T09:08:37;20.80;1.00
25328;DHT22;13279;51.300;12.394;2022-08-21T09:11:15;21.00;1.00
25328;DHT22;13279;51.300;12.394;2022-08-21T09:13:52;21.40;1.00
25328;DHT22;13279;51.300;12.394;2022-08-21T09:16:27;21.60;1.00
25328;DHT22;13279;51.300;12.394;2022-08-21T09:19:08;21.70;99.90
25328;DHT22;13279;51.300;12.394;2022-08-21T09:21:47;21.90;8.90
25328;DHT22;13279;51.300;12.394;2022-08-21T09:24:26;22.30;1.00
25328;DHT22;13279;51.300;12.394;2022-08-21T09:27:03;22.80;99.90
25328;DHT22;13279;51.300;12.394;2022-08-21T09:29:35;23.10;1.00
25328;DHT22;13279;51.300;12.394;2022-08-21T09:32:08;23.30;1.00
25328;DHT22;13279;51.300;12.394;2022-08-21T09:34:38;23.50;99.90
25328;DHT22;13279;51.300;12.394;2022-08-21T09:37:16;23.60;99.90
25328;DHT22;13279;51.300;12.394;2022-08-21T09:39:44;23.60;1.00
25328;DHT22;13279;51.300;12.394;2022-08-21T09:42:22;23.80;99.90
25328;DHT22;13279;51.300;12.394;2022-08-21T09:45:06;24.00;1.00
25328;DHT22;13279;51.300;12.394;2022-08-21T09:47:34;23.90;99.90
25328;DHT22;13279;51.300;12.394;2022-08-21T09:50:12;23.70;1.00
25328;DHT22;13279;51.300;12.394;2022-08-21T09:52:48;23.70;99.90
25328;DHT22;13279;51.300;12.394;2022-08-21T09:55:21;23.50;1.00
25328;DHT22;13279;51.300;12.394;2022-08-21T09:58:03;23.30;1.00
25328;DHT22;13279;51.300;12.394;2022-08-21T10:00:33;23.20;1.00
25328;DHT22;13279;51.300;12.394;2022-08-21T10:03:09;23.10;1.00
25328;DHT22;13279;51.300;12.394;2022-08-21T10:05:39;23.20;99.90
25328;DHT22;13279;51.300;12.394;2022-08-21T10:08:17;22.90;99.90
25328;DHT22;13279;51.300;12.394;2022-08-21T10:10:45;23.20;1.00
25328;DHT22;13279;51.300;12.394;2022-08-21T10:13:21;23.60;99.90
25328;DHT22;13279;51.300;12.394;2022-08-21T10:15:54;23.70;99.90
25328;DHT22;13279;51.300;12.394;2022-08-21T10:18:27;23.70;39.10
25328;DHT22;13279;51.300;12.394;2022-08-21T10:21:02;23.70;9.70
25328;DHT22;13279;51.300;12.394;2022-08-21T10:23:42;23.70;93.60
25328;DHT22;13279;51.300;12.394;2022-08-21T10:26:27;23.90;99.90
25328;DHT22;13279;51.300;12.394;2022-08-21T10:29:03;24.10;45.50
25328;DHT22;13279;51.300;12.394;2022-08-21T10:31:40;23.90;99.90
25328;DHT22;13279;51.300;12.394;2022-08-21T10:34:20;24.00;1.00
25328;DHT22;13279;51.300;12.394;2022-08-21T10:37:01;24.00;98.60
25328;DHT22;13279;51.300;12.394;2022-08-21T10:39:34;24.20;1.00
25328;DHT22;13279;51.300;12.394;2022-08-21T10:42:25;24.30;1.00
25328;DHT22;13279;51.300;12.394;2022-08-21T10:45:11;24.50;99.90
25328;DHT22;13279;51.300;12.394;2022-08-21T10:47:45;24.70;99.90
25328;DHT22;13279;51.300;12.394;2022-08-21T10:50:23;24.60;1.00
25328;DHT22;13279;51.300;12.394;2022-08-21T10:53:13;24.40;58.10
25328;DHT22;13279;51.300;12.394;2022-08-21T10:55:52;24.40;99.90
25328;DHT22;13279;51.300;12.394;2022-08-21T10:58:27;24.50;1.00
25328;DHT22;13279;51.300;12.394;2022-08-21T11:01:19;24.70;99.90
25328;DHT22;13279;51.300;12.394;2022-08-21T11:03:53;24.70;99.90
25328;DHT22;13279;51.300;12.394;2022-08-21T11:06:24;24.90;99.90
25328;DHT22;13279;51.300;12.394;2022-08-21T11:08:56;25.20;99.90
25328;DHT22;13279;51.300;12.394;2022-08-21T11:11:27;25.40;99.90
25328;DHT22;13279;51.300;12.394;2022-08-21T11:14:00;25.30;99.90
25328;DHT22;13279;51.300;12.394;2022-08-21T11:16:33;25.10;1.00
25328;DHT22;13279;51.300;12.394;2022-08-21T11:19:08;24.80;1.00
25328;DHT22;13279;51.300;12.394;2022-08-21T11:21:39;24.70;1.00
25328;DHT22;13279;51.300;12.394;2022-08-21T11:24:24;24.80;1.00
25328;DHT22;13279;51.300;12.394;2022-08-21T11:27:01;25.30;99.90
25328;DHT22;13279;51.300;12.394;2022-08-21T11:29:34;25.50;99.90
25328;DHT22;13279;51.300;12.394;2022-08-21T11:32:21;25.80;99.90
25328;DHT22;13279;51.300;12.394;2022-08-21T11:35:00;26.10;1.00
25328;DHT22;13279;51.300;12.394;2022-08-21T11:37:42;26.00;1.00
25328;DHT22;13279;51.300;12.394;2022-08-21T11:40:21;25.90;1.00
25328;DHT22;13279;51.300;12.394;2022-08-21T11:42:59;25.80;1.00
25328;DHT22;13279;51.300;12.394;2022-08-21T11:45:36;25.70;1.00
25328;DHT22;13279;51.300;12.394;2022-08-21T11:48:12;26.00;58.50
25328;DHT22;13279;51.300;12.394;2022-08-21T11:50:43;26.20;52.20
25328;DHT22;13279;51.300;12.394;2022-08-21T11:53:16;26.40;1.00
25328;DHT22;13279;51.300;12.394;2022-08-21T11:55:50;26.30;1.00
25328;DHT22;13279;51.300;12.394;2022-08-21T11:58:25;26.40;41.60
25328;DHT22;13279;51.300;12.394;2022-08-21T12:00:58;26.10;1.00
25328;DHT22;13279;51.300;12.394;2022-08-21T12:03:30;25.90;99.90
25328;DHT22;13279;51.300;12.394;2022-08-21T12:06:00;26.00;1.00
25328;DHT22;13279;51.300;12.394;2022-08-21T12:08:31;26.00;1.00
25328;DHT22;13279;51.300;12.394;2022-08-21T12:11:04;25.80;99.90
25328;DHT22;13279;51.300;12.394;2022-08-21T12:13:33;26.10;1.00
25328;DHT22;13279;51.300;12.394;2022-08-21T12:16:10;26.20;1.00
25328;DHT22;13279;51.300;12.394;2022-08-21T12:18:39;25.70;1.00
25328;DHT22;13279;51.300;12.394;2022-08-21T12:21:20;25.40;1.00
25328;DHT22;13279;51.300;12.394;2022-08-21T12:24:00;25.40;1.00
25328;DHT22;13279;51.300;12.394;2022-08-21T12:26:35;25.90;1.00
25328;DHT22;13279;51.300;12.394;2022-08-21T12:29:05;26.00;1.00
25328;DHT22;13279;51.300;12.394;2022-08-21T12:31:34;25.80;1.00
25328;DHT22;13279;51.300;12.394;2022-08-21T12:34:04;25.70;1.00
25328;DHT22;13279;51.300;12.394;2022-08-21T12:36:42;25.80;1.00
25328;DHT22;13279;51.300;12.394;2022-08-21T12:39:15;25.90;99.90
25328;DHT22;13279;51.300;12.394;2022-08-21T12:41:50;26.10;99.90
25328;DHT22;13279;51.300;12.394;2022-08-21T12:44:22;26.00;99.90
25328;DHT22;13279;51.300;12.394;2022-08-21T12:46:55;25.90;99.90
25328;DHT22;13279;51.300;12.394;2022-08-21T12:49:28;26.20;99.90
25328;DHT22;13279;51.300;12.394;2022-08-21T12:52:02;26.90;99.90
25328;DHT22;13279;51.300;12.394;2022-08-21T12:54:38;27.20;1.00
25328;DHT22;13279;51.300;12.394;2022-08-21T12:57:16;27.70;1.00
25328;DHT22;13279;51.300;12.394;2022-08-21T12:59:45;27.90;1.00
25328;DHT22;13279;51.300;12.394;2022-08-21T13:02:17;28.20;1.00
25328;DHT22;13279;51.300;12.394;2022-08-21T13:04:46;27.80;1.00
25328;DHT22;13279;51.300;12.394;2022-08-21T13:07:27;27.20;1.00
25328;DHT22;13279;51.300;12.394;2022-08-21T13:09:59;27.10;1.00
25328;DHT22;13279;51.300;12.394;2022-08-21T13:12:29;27.30;1.00
25328;DHT22;13279;51.300;12.394;2022-08-21T13:15:00;27.30;1.00
25328;DHT22;13279;51.300;12.394;2022-08-21T13:17:31;27.00;1.00
25328;DHT22;13279;51.300;12.394;2022-08-21T13:20:04;26.50;1.00
25328;DHT22;13279;51.300;12.394;2022-08-21T13:22:32;26.30;60.80
25328;DHT22;13279;51.300;12.394;2022-08-21T13:25:08;25.80;99.90
25328;DHT22;13279;51.300;12.394;2022-08-21T13:27:38;25.40;1.00
25328;DHT22;13279;51.300;12.394;2022-08-21T13:30:09;25.30;1.00
25328;DHT22;13279;51.300;12.394;2022-08-21T13:32:41;25.10;1.00
25328;DHT22;13279;51.300;12.394;2022-08-21T13:35:12;24.70;1.00
25328;DHT22;13279;51.300;12.394;2022-08-21T13:37:41;24.80;99.90
25328;DHT22;13279;51.300;12.394;2022-08-21T13:40:14;24.80;1.00
25328;DHT22;13279;51.300;12.394;2022-08-21T13:42:46;25.00;1.00
25328;DHT22;13279;51.300;12.394;2022-08-21T13:45:17;25.00;1.00
25328;DHT22;13279;51.300;12.394;2022-08-21T13:47:47;24.90;1.00
25328;DHT22;13279;51.300;12.394;2022-08-21T13:50:16;25.30;1.00
25328;DHT22;13279;51.300;12.394;2022-08-21T13:52:56;25.70;1.00
25328;DHT22;13279;51.300;12.394;2022-08-21T13:55:25;26.60;99.90
25328;DHT22;13279;51.300;12.394;2022-08-21T13:58:02;27.40;1.00
25328;DHT22;13279;51.300;12.394;2022-08-21T14:00:31;28.00;1.00
25328;DHT22;13279;51.300;12.394;2022-08-21T14:03:04;28.80;1.00
25328;DHT22;13279;51.300;12.394;2022-08-21T14:05:43;29.20;1.00
25328;DHT22;13279;51.300;12.394;2022-08-21T14:08:13;29.30;99.90
25328;DHT22;13279;51.300;12.394;2022-08-21T14:10:44;29.30;1.00
25328;DHT22;13279;51.300;12.394;2022-08-21T14:13:29;29.90;99.90
25328;DHT22;13279;51.300;12.394;2022-08-21T14:15:59;30.20;99.90
25328;DHT22;13279;51.300;12.394;2022-08-21T14:18:27;30.20;99.90
25328;DHT22;13279;51.300;12.394;2022-08-21T14:21:04;30.30;99.90
25328;DHT22;13279;51.300;12.394;2022-08-21T14:23:32;30.10;99.90
25328;DHT22;13279;51.300;12.394;2022-08-21T14:26:02;30.30;99.90
25328;DHT22;13279;51.300;12.394;2022-08-21T14:28:33;29.70;99.90
25328;DHT22;13279;51.300;12.394;2022-08-21T14:31:12;28.50;99.90
25328;DHT22;13279;51.300;12.394;2022-08-21T14:33:41;27.80;1.00
25328;DHT22;13279;51.300;12.394;2022-08-21T14:36:08;27.20;1.00
25328;DHT22;13279;51.300;12.394;2022-08-21T14:38:37;27.30;1.00
25328;DHT22;13279;51.300;12.394;2022-08-21T14:41:14;27.40;1.00
25328;DHT22;13279;51.300;12.394;2022-08-21T14:43:45;27.40;1.00
25328;DHT22;13279;51.300;12.394;2022-08-21T14:46:20;26.70;1.00
25328;DHT22;13279;51.300;12.394;2022-08-21T14:48:48;26.20;1.00
25328;DHT22;13279;51.300;12.394;2022-08-21T14:51:16;26.20;99.90
25328;DHT22;13279;51.300;12.394;2022-08-21T14:53:44;26.80;90.70
25328;DHT22;13279;51.300;12.394;2022-08-21T14:56:12;27.30;1.00
25328;DHT22;13279;51.300;12.394;2022-08-21T14:58:43;27.70;1.00
25328;DHT22;13279;51.300;12.394;2022-08-21T15:01:14;28.10;1.00
25328;DHT22;13279;51.300;12.394;2022-08-21T15:03:42;28.20;1.00
25328;DHT22;13279;51.300;12.394;2022-08-21T15:06:10;28.10;1.00
25328;DHT22;13279;51.300;12.394;2022-08-21T15:08:37;28.10;1.00
25328;DHT22;13279;51.300;12.394;2022-08-21T15:11:06;28.40;1.00
25328;DHT22;13279;51.300;12.394;2022-08-21T15:13:34;28.90;99.90
25328;DHT22;13279;51.300;12.394;2022-08-21T15:16:03;29.20;99.90
25328;DHT22;13279;51.300;12.394;2022-08-21T15:18:32;29.20;99.90
25328;DHT22;13279;51.300;12.394;2022-08-21T15:20:59;29.60;99.90
25328;DHT22;13279;51.300;12.394;2022-08-21T15:23:27;29.40;99.90
25328;DHT22;13279;51.300;12.394;2022-08-21T15:25:55;29.30;99.90
25328;DHT22;13279;51.300;12.394;2022-08-21T15:28:24;29.10;99.90
25328;DHT22;13279;51.300;12.394;2022-08-21T15:30:51;29.10;99.90
25328;DHT22;13279;51.300;12.394;2022-08-21T15:33:19;29.20;99.90
25328;DHT22;13279;51.300;12.394;2022-08-21T15:35:48;30.00;99.90
25328;DHT22;13279;51.300;12.394;2022-08-21T15:38:16;30.30;99.90
25328;DHT22;13279;51.300;12.394;2022-08-21T15:40:44;30.20;99.90